createdAt,value
2023-01-29T00:00:17.211Z,3.70
2023-01-29T00:01:19.309Z,3.60
2023-01-29T00:02:21.439Z,3.60
2023-01-29T00:03:23.284Z,3.60
2023-01-29T00:04:25.344Z,3.60
2023-01-29T00:05:28.459Z,3.70
2023-01-29T00:06:30.863Z,3.60
2023-01-29T00:07:32.814Z,3.60
2023-01-29T00:08:35.981Z,3.70
2023-01-29T00:09:37.899Z,3.70
2023-01-29T00:10:39.761Z,3.70
2023-01-29T00:11:41.772Z,3.70
2023-01-29T00:12:43.525Z,3.70
2023-01-29T00:13:45.297Z,3.70
2023-01-29T00:14:47.067Z,3.70
2023-01-29T00:15:56.567Z,3.70
2023-01-29T00:16:58.494Z,3.70
2023-01-29T00:18:00.321Z,3.70
2023-01-29T00:19:02.835Z,3.70
2023-01-29T00:20:06.611Z,3.70
2023-01-29T00:21:16.196Z,3.70
2023-01-29T00:22:18.099Z,3.70
2023-01-29T00:23:20.595Z,3.60
2023-01-29T00:24:22.678Z,3.60
2023-01-29T00:25:25.130Z,3.60
2023-01-29T00:26:27.647Z,3.60
2023-01-29T00:27:29.926Z,3.60
2023-01-29T00:28:31.853Z,3.60
2023-01-29T00:29:33.614Z,3.60
2023-01-29T00:30:37.700Z,3.60
2023-01-29T00:31:39.559Z,3.60
2023-01-29T00:32:42.658Z,3.60
2023-01-29T00:33:44.488Z,3.60
2023-01-29T00:34:46.773Z,3.70
2023-01-29T00:35:51.436Z,3.70
2023-01-29T00:36:53.257Z,3.70
2023-01-29T00:37:56.747Z,3.70
2023-01-29T00:39:02.516Z,3.70
2023-01-29T00:40:05.899Z,3.70
2023-01-29T00:41:30.567Z,3.70
2023-01-29T00:42:50.939Z,3.70
2023-01-29T00:44:11.469Z,3.70
2023-01-29T00:45:13.785Z,3.70
2023-01-29T00:46:15.607Z,3.70
2023-01-29T00:47:35.847Z,3.70
2023-01-29T00:48:37.669Z,3.70
2023-01-29T00:49:39.572Z,3.80
2023-01-29T00:50:41.402Z,3.80
2023-01-29T00:51:43.216Z,3.80
2023-01-29T00:52:45.840Z,3.80
2023-01-29T00:53:48.085Z,3.80
2023-01-29T00:54:50.344Z,3.80
2023-01-29T00:55:52.165Z,3.80
2023-01-29T00:56:53.889Z,3.80
2023-01-29T00:57:55.747Z,3.80
2023-01-29T00:58:57.619Z,3.80
2023-01-29T00:59:59.688Z,3.80
2023-01-29T01:01:02.635Z,3.80
2023-01-29T01:02:23.216Z,3.80
2023-01-29T01:03:25.057Z,3.80
2023-01-29T01:04:26.781Z,3.80
2023-01-29T01:05:28.729Z,3.70
2023-01-29T01:06:30.507Z,3.70
2023-01-29T01:07:32.362Z,3.70
2023-01-29T01:08:52.845Z,3.70
2023-01-29T01:10:13.814Z,3.70
2023-01-29T01:11:15.931Z,3.70
2023-01-29T01:12:17.712Z,3.70
2023-01-29T01:13:19.581Z,3.70
2023-01-29T01:14:22.229Z,3.70
2023-01-29T01:15:26.682Z,3.70
2023-01-29T01:16:28.746Z,3.70
2023-01-29T01:17:30.613Z,3.70
2023-01-29T01:18:32.519Z,3.70
2023-01-29T01:19:34.367Z,3.70
2023-01-29T01:20:36.871Z,3.70
2023-01-29T01:21:38.895Z,3.70
2023-01-29T01:22:40.973Z,3.70
2023-01-29T01:23:42.816Z,3.60
2023-01-29T01:24:44.697Z,3.70
2023-01-29T01:25:46.662Z,3.70
2023-01-29T01:26:48.466Z,3.70
2023-01-29T01:27:54.336Z,3.70
2023-01-29T01:28:56.137Z,3.70
2023-01-29T01:29:58.097Z,3.80
2023-01-29T01:31:08.895Z,3.80
2023-01-29T01:32:10.769Z,3.80
2023-01-29T01:33:12.901Z,3.80
2023-01-29T01:34:14.769Z,3.80
2023-01-29T01:35:17.034Z,3.80
2023-01-29T01:36:19.872Z,3.90
2023-01-29T01:37:22.158Z,3.90
2023-01-29T01:38:23.994Z,3.90
2023-01-29T01:39:25.917Z,3.90
2023-01-29T01:40:27.786Z,3.90
2023-01-29T01:41:30.233Z,3.90
2023-01-29T01:42:32.590Z,4.00
2023-01-29T01:44:06.727Z,3.90
2023-01-29T01:45:19.631Z,4.00
2023-01-29T01:46:22.319Z,4.00
2023-01-29T01:47:34.900Z,4.00
2023-01-29T01:48:37.281Z,4.00
2023-01-29T01:49:39.493Z,4.00
2023-01-29T01:50:54.469Z,4.00
2023-01-29T01:51:56.444Z,4.00
2023-01-29T01:53:07.352Z,4.10
2023-01-29T01:54:22.915Z,4.10
2023-01-29T01:55:28.075Z,4.10
2023-01-29T01:56:38.421Z,4.10
2023-01-29T01:57:42.215Z,4.10
2023-01-29T01:58:50.449Z,4.10
2023-01-29T02:00:04.029Z,4.10
2023-01-29T02:01:15.657Z,4.10
2023-01-29T02:02:36.618Z,4.00
2023-01-29T02:04:03.720Z,4.10
2023-01-29T02:05:26.234Z,4.00
2023-01-29T02:06:46.531Z,4.00
2023-01-29T02:08:09.135Z,4.00
2023-01-29T02:09:35.190Z,4.00
2023-01-29T02:10:42.905Z,4.00
2023-01-29T02:11:45.090Z,4.00
2023-01-29T02:12:47.623Z,4.00
2023-01-29T02:13:53.821Z,4.00
2023-01-29T02:15:01.204Z,4.00
2023-01-29T02:16:03.144Z,4.00
2023-01-29T02:17:06.482Z,4.00
2023-01-29T02:18:09.318Z,3.90
2023-01-29T02:19:34.239Z,3.90
2023-01-29T02:20:41.317Z,3.90
2023-01-29T02:22:29.284Z,3.90
2023-01-29T02:24:09.353Z,3.90
2023-01-29T02:25:17.216Z,3.90
2023-01-29T02:26:39.093Z,3.90
2023-01-29T02:28:03.314Z,3.90
2023-01-29T02:29:43.934Z,3.90
2023-01-29T02:30:54.856Z,3.90
2023-01-29T02:32:14.956Z,3.90
2023-01-29T02:33:44.243Z,3.90
2023-01-29T02:35:23.985Z,3.90
2023-01-29T02:36:50.457Z,3.90
2023-01-29T02:38:25.007Z,3.90
2023-01-29T02:39:33.039Z,3.90
2023-01-29T02:40:45.475Z,3.90
2023-01-29T02:42:15.083Z,3.80
2023-01-29T02:43:33.119Z,3.90
2023-01-29T02:44:47.240Z,3.90
2023-01-29T02:46:04.137Z,3.90
2023-01-29T02:47:15.667Z,3.90
2023-01-29T02:48:22.487Z,3.90
2023-01-29T02:49:24.845Z,3.90
2023-01-29T02:50:56.530Z,3.90
2023-01-29T02:52:09.751Z,3.80
2023-01-29T02:53:21.770Z,3.80
2023-01-29T02:54:31.262Z,3.80
2023-01-29T02:55:36.003Z,3.80
2023-01-29T02:56:47.492Z,3.80
2023-01-29T02:57:51.733Z,3.80
2023-01-29T02:59:00.791Z,3.80
2023-01-29T03:00:09.279Z,3.80
2023-01-29T03:01:47.987Z,3.80
2023-01-29T03:03:17.771Z,3.80
2023-01-29T03:04:31.260Z,3.80
2023-01-29T03:05:37.722Z,3.80
2023-01-29T03:06:43.092Z,3.80
2023-01-29T03:07:58.746Z,3.80
2023-01-29T03:09:14.515Z,3.90
2023-01-29T03:10:21.868Z,3.90
2023-01-29T03:11:24.353Z,3.80
2023-01-29T03:12:33.847Z,3.80
2023-01-29T03:13:50.658Z,3.80
2023-01-29T03:15:28.040Z,3.80
2023-01-29T03:16:52.970Z,3.80
2023-01-29T03:18:02.398Z,3.80
2023-01-29T03:19:19.012Z,3.80
2023-01-29T03:20:26.546Z,3.80
2023-01-29T03:21:53.616Z,3.80
2023-01-29T03:23:03.773Z,3.80
2023-01-29T03:24:27.804Z,3.80
2023-01-29T03:25:51.030Z,3.80
2023-01-29T03:27:12.613Z,3.80
2023-01-29T03:28:39.066Z,3.80
2023-01-29T03:30:03.349Z,3.80
2023-01-29T03:31:51.396Z,3.80
2023-01-29T03:32:55.703Z,3.70
2023-01-29T03:34:16.339Z,3.70
2023-01-29T03:35:33.487Z,3.70
2023-01-29T03:37:01.319Z,3.70
2023-01-29T03:38:05.390Z,3.70
2023-01-29T03:39:09.545Z,3.70
2023-01-29T03:40:12.078Z,3.70
2023-01-29T03:41:33.195Z,3.70
2023-01-29T03:42:50.478Z,3.70
2023-01-29T03:44:00.771Z,3.70
2023-01-29T03:45:23.894Z,3.70
2023-01-29T03:46:56.528Z,3.70
2023-01-29T03:48:16.091Z,3.70
2023-01-29T03:49:42.051Z,3.70
2023-01-29T03:51:13.846Z,3.70
2023-01-29T03:52:39.981Z,3.70
2023-01-29T03:53:53.269Z,3.70
2023-01-29T03:55:11.015Z,3.70
2023-01-29T03:56:43.516Z,3.70
2023-01-29T03:57:56.017Z,3.70
2023-01-29T03:59:20.645Z,3.70
2023-01-29T04:00:54.353Z,3.70
2023-01-29T04:02:00.705Z,3.60
2023-01-29T04:03:12.136Z,3.60
2023-01-29T04:04:29.093Z,3.60
2023-01-29T04:05:38.009Z,3.70
2023-01-29T04:06:48.842Z,3.60
2023-01-29T04:08:01.243Z,3.60
2023-01-29T04:09:04.590Z,3.60
2023-01-29T04:10:12.898Z,3.60
2023-01-29T04:11:18.466Z,3.60
2023-01-29T04:12:27.556Z,3.60
2023-01-29T04:13:33.797Z,3.60
2023-01-29T04:14:37.691Z,3.60
2023-01-29T04:15:46.017Z,3.60
2023-01-29T04:16:51.785Z,3.60
2023-01-29T04:18:06.018Z,3.60
2023-01-29T04:19:17.246Z,3.60
2023-01-29T04:20:20.702Z,3.60
2023-01-29T04:21:22.990Z,3.60
2023-01-29T04:22:31.304Z,3.60
2023-01-29T04:23:33.515Z,3.60
2023-01-29T04:24:35.748Z,3.60
2023-01-29T04:25:47.613Z,3.60
2023-01-29T04:27:11.223Z,3.60
2023-01-29T04:28:28.288Z,3.60
2023-01-29T04:30:05.777Z,3.70
2023-01-29T04:31:13.660Z,3.60
2023-01-29T04:32:38.793Z,3.60
2023-01-29T04:34:24.009Z,3.70
2023-01-29T04:35:28.458Z,3.70
2023-01-29T04:36:40.725Z,3.60
2023-01-29T04:37:52.650Z,3.60
2023-01-29T04:39:11.061Z,3.60
2023-01-29T04:40:28.249Z,3.60
2023-01-29T04:41:47.945Z,3.60
2023-01-29T04:43:03.283Z,3.60
2023-01-29T04:44:15.842Z,3.60
2023-01-29T04:45:43.033Z,3.60
2023-01-29T04:47:03.552Z,3.60
2023-01-29T04:48:25.963Z,3.50
2023-01-29T04:49:35.152Z,3.50
2023-01-29T04:51:01.245Z,3.60
2023-01-29T04:52:26.001Z,3.60
2023-01-29T04:54:00.339Z,3.50
2023-01-29T04:55:15.528Z,3.50
2023-01-29T04:57:30.616Z,3.50
2023-01-29T04:58:44.859Z,3.50
2023-01-29T04:59:53.549Z,3.50
2023-01-29T05:00:55.733Z,3.50
2023-01-29T05:02:00.585Z,3.50
2023-01-29T05:03:03.939Z,3.50
2023-01-29T05:04:14.594Z,3.50
2023-01-29T05:05:20.101Z,3.50
2023-01-29T05:06:24.747Z,3.40
2023-01-29T05:07:28.833Z,3.50
2023-01-29T05:08:31.997Z,3.40
2023-01-29T05:09:34.943Z,3.40
2023-01-29T05:10:37.379Z,3.40
2023-01-29T05:11:39.349Z,3.50
2023-01-29T05:12:45.172Z,3.50
2023-01-29T05:13:48.940Z,3.50
2023-01-29T05:14:53.039Z,3.50
2023-01-29T05:16:01.847Z,3.50
2023-01-29T05:17:10.427Z,3.50
2023-01-29T05:18:12.575Z,3.50
2023-01-29T05:19:16.734Z,3.50
2023-01-29T05:20:18.963Z,3.50
2023-01-29T05:21:23.122Z,3.60
2023-01-29T05:22:25.446Z,3.60
2023-01-29T05:24:08.740Z,3.50
2023-01-29T05:25:23.789Z,3.60
2023-01-29T05:26:44.329Z,3.60
2023-01-29T05:28:05.208Z,3.60
2023-01-29T05:29:07.062Z,3.60
2023-01-29T05:30:10.461Z,3.60
2023-01-29T05:31:12.471Z,3.60
2023-01-29T05:32:15.887Z,3.60
2023-01-29T05:33:24.678Z,3.70
2023-01-29T05:34:26.743Z,3.70
2023-01-29T05:35:29.529Z,3.60
2023-01-29T05:36:31.374Z,3.60
2023-01-29T05:37:33.164Z,3.60
2023-01-29T05:38:35.115Z,3.60
2023-01-29T05:39:36.917Z,3.60
2023-01-29T05:40:38.822Z,3.60
2023-01-29T05:41:40.684Z,3.60
2023-01-29T05:42:42.475Z,3.60
2023-01-29T05:43:44.234Z,3.60
2023-01-29T05:44:46.001Z,3.60
2023-01-29T05:45:59.657Z,3.60
2023-01-29T05:47:02.977Z,3.60
2023-01-29T05:48:05.021Z,3.60
2023-01-29T05:49:06.778Z,3.60
2023-01-29T05:50:09.307Z,3.60
2023-01-29T05:51:11.063Z,3.60
2023-01-29T05:52:12.816Z,3.60
2023-01-29T05:53:14.832Z,3.60
2023-01-29T05:54:16.617Z,3.60
2023-01-29T05:55:18.738Z,3.60
2023-01-29T05:56:20.768Z,3.60
2023-01-29T05:57:22.856Z,3.60
2023-01-29T05:58:24.677Z,3.70
2023-01-29T05:59:26.627Z,3.60
2023-01-29T06:00:28.371Z,3.70
2023-01-29T06:01:30.243Z,3.70
2023-01-29T06:02:32.215Z,3.70
2023-01-29T06:03:34.028Z,3.70
2023-01-29T06:04:35.878Z,3.70
2023-01-29T06:05:38.968Z,3.70
2023-01-29T06:06:40.885Z,3.70
2023-01-29T06:07:45.335Z,3.70
2023-01-29T06:08:47.414Z,3.70
2023-01-29T06:09:49.156Z,3.60
2023-01-29T06:10:50.962Z,3.60
2023-01-29T06:11:52.713Z,3.60
2023-01-29T06:12:54.573Z,3.60
2023-01-29T06:13:56.335Z,3.60
2023-01-29T06:14:58.227Z,3.60
2023-01-29T06:15:59.973Z,3.60
2023-01-29T06:17:01.879Z,3.60
2023-01-29T06:18:03.748Z,3.60
2023-01-29T06:19:05.584Z,3.60
2023-01-29T06:20:08.315Z,3.60
2023-01-29T06:21:12.573Z,3.60
2023-01-29T06:22:14.396Z,3.60
2023-01-29T06:23:16.600Z,3.60
2023-01-29T06:24:18.871Z,3.60
2023-01-29T06:25:22.112Z,3.60
2023-01-29T06:26:25.167Z,3.60
2023-01-29T06:27:27.035Z,3.60
2023-01-29T06:28:29.000Z,3.60
2023-01-29T06:29:31.076Z,3.60
2023-01-29T06:30:34.846Z,3.60
2023-01-29T06:31:39.361Z,3.60
2023-01-29T06:32:41.687Z,3.60
2023-01-29T06:33:43.901Z,3.60
2023-01-29T06:34:47.901Z,3.60
2023-01-29T06:35:55.121Z,3.60
2023-01-29T06:36:56.996Z,3.60
2023-01-29T06:37:59.188Z,3.60
2023-01-29T06:39:01.460Z,3.60
2023-01-29T06:40:04.069Z,3.60
2023-01-29T06:41:10.944Z,3.60
2023-01-29T06:42:14.184Z,3.60
2023-01-29T06:43:16.002Z,3.60
2023-01-29T06:44:17.887Z,3.60
2023-01-29T06:45:20.205Z,3.60
2023-01-29T06:46:22.013Z,3.60
2023-01-29T06:47:24.816Z,3.60
2023-01-29T06:48:26.601Z,3.60
2023-01-29T06:49:28.508Z,3.60
2023-01-29T06:50:30.288Z,3.70
2023-01-29T06:51:32.042Z,3.70
2023-01-29T06:52:33.756Z,3.70
2023-01-29T06:53:36.581Z,3.70
2023-01-29T06:54:38.374Z,3.70
2023-01-29T06:55:40.229Z,3.70
2023-01-29T06:56:42.018Z,3.70
2023-01-29T06:57:44.364Z,3.70
2023-01-29T06:58:46.223Z,3.80
2023-01-29T06:59:49.052Z,3.80
2023-01-29T07:00:51.018Z,3.80
2023-01-29T07:01:52.920Z,3.80
2023-01-29T07:02:54.750Z,3.80
2023-01-29T07:03:57.966Z,3.80
2023-01-29T07:05:00.111Z,3.80
2023-01-29T07:06:02.342Z,3.80
2023-01-29T07:07:04.204Z,3.80
2023-01-29T07:08:06.185Z,3.80
2023-01-29T07:09:08.173Z,3.80
2023-01-29T07:10:10.627Z,3.80
2023-01-29T07:11:12.624Z,3.80
2023-01-29T07:12:14.534Z,3.80
2023-01-29T07:13:16.725Z,3.80
2023-01-29T07:14:18.913Z,3.80
2023-01-29T07:15:22.100Z,3.80
2023-01-29T07:16:25.029Z,3.80
2023-01-29T07:17:27.037Z,3.80
2023-01-29T07:18:29.853Z,3.80
2023-01-29T07:19:31.780Z,3.80
2023-01-29T07:20:33.617Z,3.80
2023-01-29T07:21:35.489Z,3.80
2023-01-29T07:22:37.483Z,3.80
2023-01-29T07:23:39.360Z,3.80
2023-01-29T07:24:41.199Z,3.80
2023-01-29T07:25:43.331Z,3.80
2023-01-29T07:26:45.484Z,3.80
2023-01-29T07:27:47.352Z,3.80
2023-01-29T07:28:49.131Z,3.80
2023-01-29T07:29:50.958Z,3.80
2023-01-29T07:30:57.031Z,3.80
2023-01-29T07:31:59.118Z,3.80
2023-01-29T07:33:07.518Z,3.80
2023-01-29T07:34:09.514Z,3.80
2023-01-29T07:35:11.723Z,3.80
2023-01-29T07:36:14.509Z,3.90
2023-01-29T07:37:16.303Z,3.90
2023-01-29T07:38:18.081Z,3.90
2023-01-29T07:39:19.913Z,3.90
2023-01-29T07:40:22.339Z,3.90
2023-01-29T07:41:24.215Z,3.90
2023-01-29T07:42:25.996Z,3.90
2023-01-29T07:43:27.830Z,3.90
2023-01-29T07:44:29.571Z,3.90
2023-01-29T07:45:33.386Z,3.90
2023-01-29T07:46:35.421Z,3.90
2023-01-29T07:47:37.639Z,3.90
2023-01-29T07:48:39.752Z,3.90
2023-01-29T07:49:42.721Z,3.90
2023-01-29T07:50:45.075Z,3.90
2023-01-29T07:51:46.840Z,4.00
2023-01-29T07:52:48.691Z,4.00
2023-01-29T07:53:50.695Z,4.00
2023-01-29T07:54:52.449Z,4.00
2023-01-29T07:55:54.283Z,4.00
2023-01-29T07:56:56.145Z,4.00
2023-01-29T07:58:00.302Z,4.00
2023-01-29T07:59:02.519Z,4.00
2023-01-29T08:00:05.143Z,4.00
2023-01-29T08:01:14.215Z,4.00
2023-01-29T08:02:17.085Z,4.00
2023-01-29T08:03:20.951Z,4.00
2023-01-29T08:04:22.723Z,4.00
2023-01-29T08:05:24.484Z,4.00
2023-01-29T08:06:26.453Z,4.00
2023-01-29T08:07:28.171Z,4.00
2023-01-29T08:08:30.171Z,4.00
2023-01-29T08:09:32.451Z,4.00
2023-01-29T08:10:36.223Z,4.00
2023-01-29T08:11:38.087Z,4.00
2023-01-29T08:12:39.979Z,4.00
2023-01-29T08:13:41.752Z,4.00
2023-01-29T08:14:45.716Z,4.00
2023-01-29T08:15:47.806Z,4.10
2023-01-29T08:16:50.024Z,4.10
2023-01-29T08:17:57.730Z,4.00
2023-01-29T08:19:02.790Z,4.10
2023-01-29T08:20:08.616Z,4.10
2023-01-29T08:21:12.269Z,4.10
2023-01-29T08:22:16.560Z,4.10
2023-01-29T08:23:18.372Z,4.10
2023-01-29T08:24:20.490Z,4.10
2023-01-29T08:25:23.320Z,4.10
2023-01-29T08:26:27.260Z,4.10
2023-01-29T08:27:30.353Z,4.10
2023-01-29T08:28:32.427Z,4.10
2023-01-29T08:29:34.781Z,4.10
2023-01-29T08:30:36.753Z,4.10
2023-01-29T08:31:38.644Z,4.10
2023-01-29T08:32:40.461Z,4.20
2023-01-29T08:33:42.397Z,4.20
2023-01-29T08:34:44.481Z,4.20
2023-01-29T08:35:53.908Z,4.20
2023-01-29T08:36:55.731Z,4.20
2023-01-29T08:37:59.721Z,4.20
2023-01-29T08:39:01.847Z,4.20
2023-01-29T08:40:04.848Z,4.20
2023-01-29T08:41:08.292Z,4.20
2023-01-29T08:42:10.114Z,4.20
2023-01-29T08:43:13.453Z,4.20
2023-01-29T08:44:16.942Z,4.20
2023-01-29T08:45:19.023Z,4.20
2023-01-29T08:46:21.000Z,4.20
2023-01-29T08:47:27.442Z,4.20
2023-01-29T08:48:30.372Z,4.20
2023-01-29T08:49:33.010Z,4.20
2023-01-29T08:50:35.615Z,4.20
2023-01-29T08:51:37.446Z,4.20
2023-01-29T08:52:39.180Z,4.20
2023-01-29T08:53:41.051Z,4.20
2023-01-29T08:54:43.351Z,4.30
2023-01-29T08:55:46.637Z,4.20
2023-01-29T08:56:48.574Z,4.30
2023-01-29T08:57:50.453Z,4.20
2023-01-29T08:58:52.260Z,4.30
2023-01-29T08:59:54.051Z,4.30
2023-01-29T09:00:55.906Z,4.30
2023-01-29T09:01:57.824Z,4.30
2023-01-29T09:03:00.981Z,4.30
2023-01-29T09:04:03.436Z,4.30
2023-01-29T09:05:06.117Z,4.30
2023-01-29T09:06:13.645Z,4.30
2023-01-29T09:07:15.492Z,4.30
2023-01-29T09:08:17.272Z,4.30
2023-01-29T09:09:19.025Z,4.30
2023-01-29T09:10:20.812Z,4.30
2023-01-29T09:11:22.763Z,4.30
2023-01-29T09:12:24.596Z,4.30
2023-01-29T09:13:26.724Z,4.30
2023-01-29T09:14:28.574Z,4.40
2023-01-29T09:15:30.525Z,4.40
2023-01-29T09:16:32.409Z,4.40
2023-01-29T09:17:34.281Z,4.40
2023-01-29T09:18:36.544Z,4.40
2023-01-29T09:19:39.953Z,4.40
2023-01-29T09:20:43.988Z,4.40
2023-01-29T09:21:46.440Z,4.40
2023-01-29T09:22:49.860Z,4.40
2023-01-29T09:23:53.030Z,4.40
2023-01-29T09:24:54.899Z,4.40
2023-01-29T09:25:57.228Z,4.40
2023-01-29T09:26:59.678Z,4.40
2023-01-29T09:28:01.929Z,4.50
2023-01-29T09:29:03.996Z,4.50
2023-01-29T09:30:07.215Z,4.40
2023-01-29T09:31:09.163Z,4.50
2023-01-29T09:32:11.009Z,4.50
2023-01-29T09:33:12.945Z,4.50
2023-01-29T09:34:16.194Z,4.50
2023-01-29T09:35:18.415Z,4.50
2023-01-29T09:36:20.479Z,4.50
2023-01-29T09:37:23.463Z,4.50
2023-01-29T09:38:25.436Z,4.50
2023-01-29T09:39:28.917Z,4.50
2023-01-29T09:40:56.825Z,4.50
2023-01-29T09:42:23.214Z,4.60
2023-01-29T09:43:36.601Z,4.60
2023-01-29T09:44:54.136Z,4.60
2023-01-29T09:46:05.361Z,4.60
2023-01-29T09:47:12.892Z,4.60
2023-01-29T09:48:14.951Z,4.60
2023-01-29T09:49:22.763Z,4.60
2023-01-29T09:50:40.943Z,4.60
2023-01-29T09:51:48.442Z,4.70
2023-01-29T09:52:56.224Z,4.70
2023-01-29T09:54:21.295Z,4.70
2023-01-29T09:55:35.384Z,4.70
2023-01-29T09:56:37.246Z,4.70
2023-01-29T09:57:50.062Z,4.70
2023-01-29T09:58:51.925Z,4.80
2023-01-29T09:59:55.677Z,4.80
2023-01-29T10:01:07.941Z,4.80
2023-01-29T10:02:23.113Z,4.70
2023-01-29T10:03:44.391Z,4.80
2023-01-29T10:05:06.712Z,4.80
2023-01-29T10:06:45.449Z,4.80
2023-01-29T10:08:03.357Z,4.80
2023-01-29T10:09:31.716Z,4.80
2023-01-29T10:10:41.323Z,4.80
2023-01-29T10:11:58.076Z,4.80
2023-01-29T10:13:32.909Z,4.80
2023-01-29T10:15:00.923Z,4.90
2023-01-29T10:16:16.664Z,4.90
2023-01-29T10:18:12.270Z,4.90
2023-01-29T10:19:22.834Z,4.80
2023-01-29T10:20:48.983Z,4.90
2023-01-29T10:22:00.672Z,4.90
2023-01-29T10:23:11.019Z,4.90
2023-01-29T10:24:34.767Z,5.00
2023-01-29T10:25:40.606Z,5.00
2023-01-29T10:26:42.516Z,5.00
2023-01-29T10:27:51.088Z,5.00
2023-01-29T10:28:56.912Z,5.00
2023-01-29T10:30:00.605Z,5.00
2023-01-29T10:31:10.252Z,5.10
2023-01-29T10:32:21.804Z,5.10
2023-01-29T10:34:14.889Z,5.10
2023-01-29T10:35:22.205Z,5.10
2023-01-29T10:36:49.510Z,5.10
2023-01-29T10:37:54.846Z,5.10
2023-01-29T10:38:56.745Z,5.10
2023-01-29T10:40:00.044Z,5.10
2023-01-29T10:41:38.443Z,5.10
2023-01-29T10:42:51.632Z,5.10
2023-01-29T10:44:14.301Z,5.00
2023-01-29T10:45:21.246Z,5.00
2023-01-29T10:46:33.999Z,5.00
2023-01-29T10:47:52.551Z,5.00
2023-01-29T10:49:17.803Z,5.00
2023-01-29T10:50:45.615Z,5.00
2023-01-29T10:52:09.003Z,5.00
2023-01-29T10:53:48.276Z,5.00
2023-01-29T10:54:50.334Z,5.00
2023-01-29T10:55:57.958Z,5.00
2023-01-29T10:57:11.413Z,5.00
2023-01-29T10:58:31.114Z,5.00
2023-01-29T10:59:47.349Z,5.10
2023-01-29T11:00:49.690Z,5.10
2023-01-29T11:02:00.575Z,5.10
2023-01-29T11:03:28.083Z,5.10
2023-01-29T11:04:32.858Z,5.10
2023-01-29T11:05:56.711Z,5.10
2023-01-29T11:07:00.903Z,5.10
2023-01-29T11:08:11.852Z,5.10
2023-01-29T11:09:25.780Z,5.20
2023-01-29T11:10:29.406Z,5.20
2023-01-29T11:12:02.241Z,5.20
2023-01-29T11:13:05.667Z,5.20
2023-01-29T11:14:13.878Z,5.20
2023-01-29T11:15:24.709Z,5.20
2023-01-29T11:16:30.020Z,5.20
2023-01-29T11:17:31.855Z,5.20
2023-01-29T11:18:49.623Z,5.20
2023-01-29T11:19:53.385Z,5.20
2023-01-29T11:21:04.828Z,5.20
2023-01-29T11:22:14.481Z,5.20
2023-01-29T11:23:30.189Z,5.20
2023-01-29T11:24:33.158Z,5.30
2023-01-29T11:25:35.386Z,5.30
2023-01-29T11:26:44.844Z,5.30
2023-01-29T11:27:54.643Z,5.30
2023-01-29T11:28:57.735Z,5.30
2023-01-29T11:29:59.641Z,5.30
2023-01-29T11:31:02.417Z,5.30
2023-01-29T11:32:16.517Z,5.30
2023-01-29T11:33:26.756Z,5.30
2023-01-29T11:34:29.462Z,5.30
2023-01-29T11:35:33.268Z,5.30
2023-01-29T11:36:38.730Z,5.30
2023-01-29T11:37:42.711Z,5.40
2023-01-29T11:38:44.693Z,5.40
2023-01-29T11:39:47.930Z,5.40
2023-01-29T11:40:49.992Z,5.40
2023-01-29T11:42:04.711Z,5.40
2023-01-29T11:43:18.600Z,5.40
2023-01-29T11:44:43.326Z,5.40
2023-01-29T11:45:45.378Z,5.40
2023-01-29T11:46:49.411Z,5.30
2023-01-29T11:47:54.767Z,5.30
2023-01-29T11:48:59.297Z,5.30
2023-01-29T11:50:21.981Z,5.30
2023-01-29T11:51:28.163Z,5.30
2023-01-29T11:52:42.062Z,5.30
2023-01-29T11:53:49.575Z,5.30
2023-01-29T11:54:57.361Z,5.30
2023-01-29T11:56:29.803Z,5.30
2023-01-29T11:57:27.517Z,5.30
2023-01-29T11:58:32.628Z,5.30
2023-01-29T11:59:48.865Z,5.30
2023-01-29T12:00:55.249Z,5.30
2023-01-29T12:02:06.117Z,5.30
2023-01-29T12:03:16.274Z,5.30
2023-01-29T12:04:22.882Z,5.30
2023-01-29T12:05:26.516Z,5.30
2023-01-29T12:06:37.487Z,5.30
2023-01-29T12:07:42.953Z,5.30
2023-01-29T12:08:45.054Z,5.30
2023-01-29T12:09:55.174Z,5.30
2023-01-29T12:11:09.220Z,5.40
2023-01-29T12:12:40.041Z,5.40
2023-01-29T12:13:45.008Z,5.40
2023-01-29T12:14:46.802Z,5.40
2023-01-29T12:15:49.246Z,5.40
2023-01-29T12:17:03.882Z,5.40
2023-01-29T12:18:20.148Z,5.40
2023-01-29T12:19:38.349Z,5.40
2023-01-29T12:20:48.454Z,5.40
2023-01-29T12:22:23.628Z,5.40
2023-01-29T12:23:54.157Z,5.40
2023-01-29T12:25:29.901Z,5.40
2023-01-29T12:26:46.724Z,5.40
2023-01-29T12:27:53.448Z,5.40
2023-01-29T12:29:12.342Z,5.40
2023-01-29T12:30:28.813Z,5.40
2023-01-29T12:31:42.933Z,5.40
2023-01-29T12:33:24.623Z,5.40
2023-01-29T12:34:35.189Z,5.40
2023-01-29T12:35:45.976Z,5.40
2023-01-29T12:36:56.676Z,5.40
2023-01-29T12:38:08.374Z,5.40
2023-01-29T12:39:16.432Z,5.40
2023-01-29T12:40:20.165Z,5.40
2023-01-29T12:41:46.726Z,5.40
2023-01-29T12:42:53.300Z,5.40
2023-01-29T12:44:07.400Z,5.40
2023-01-29T12:45:15.184Z,5.40
2023-01-29T12:46:44.934Z,5.40
2023-01-29T12:47:56.924Z,5.40
2023-01-29T12:49:03.073Z,5.40
2023-01-29T12:50:19.405Z,5.40
2023-01-29T12:51:28.123Z,5.40
2023-01-29T12:52:53.305Z,5.40
2023-01-29T12:54:13.996Z,5.40
2023-01-29T12:55:23.132Z,5.40
2023-01-29T12:56:34.796Z,5.40
2023-01-29T12:57:46.051Z,5.40
2023-01-29T12:58:51.576Z,5.40
2023-01-29T13:00:05.601Z,5.40
2023-01-29T13:01:16.648Z,5.40
2023-01-29T13:02:56.346Z,5.40
2023-01-29T13:04:10.177Z,5.40
2023-01-29T13:05:19.151Z,5.40
2023-01-29T13:06:28.634Z,5.40
2023-01-29T13:07:47.402Z,5.30
2023-01-29T13:08:56.027Z,5.30
2023-01-29T13:10:06.020Z,5.30
2023-01-29T13:11:17.421Z,5.30
2023-01-29T13:12:21.308Z,5.30
2023-01-29T13:13:53.999Z,5.40
2023-01-29T13:15:30.450Z,5.30
2023-01-29T13:16:41.811Z,5.40
2023-01-29T13:17:49.076Z,5.40
2023-01-29T13:18:55.963Z,5.40
2023-01-29T13:20:02.189Z,5.40
2023-01-29T13:21:05.551Z,5.40
2023-01-29T13:22:27.273Z,5.40
2023-01-29T13:23:40.617Z,5.40
2023-01-29T13:24:49.971Z,5.40
2023-01-29T13:26:01.696Z,5.50
2023-01-29T13:27:04.963Z,5.50
2023-01-29T13:28:15.289Z,5.50
2023-01-29T13:29:33.781Z,5.50
2023-01-29T13:30:37.511Z,5.60
2023-01-29T13:31:41.253Z,5.60
2023-01-29T13:32:54.279Z,5.60
2023-01-29T13:34:25.166Z,5.70
2023-01-29T13:35:27.501Z,5.70
2023-01-29T13:36:31.988Z,5.70
2023-01-29T13:37:38.867Z,5.70
2023-01-29T13:38:42.653Z,5.70
2023-01-29T13:39:52.023Z,5.70
2023-01-29T13:41:00.379Z,5.70
2023-01-29T13:42:14.831Z,5.80
2023-01-29T13:43:23.830Z,5.80
2023-01-29T13:44:38.135Z,5.80
2023-01-29T13:45:45.318Z,5.80
2023-01-29T13:46:56.784Z,5.80
2023-01-29T13:48:27.725Z,5.80
2023-01-29T13:49:31.731Z,5.80
2023-01-29T13:50:41.882Z,5.80
2023-01-29T13:51:43.636Z,5.80
2023-01-29T13:52:57.028Z,5.80
2023-01-29T13:54:08.098Z,5.80
2023-01-29T13:55:19.311Z,5.80
2023-01-29T13:56:33.543Z,5.80
2023-01-29T13:57:44.419Z,5.80
2023-01-29T13:58:46.174Z,5.80
2023-01-29T13:59:56.364Z,5.80
2023-01-29T14:01:00.634Z,5.80
2023-01-29T14:02:04.885Z,5.80
2023-01-29T14:03:11.774Z,5.80
2023-01-29T14:04:19.862Z,5.80
2023-01-29T14:05:31.692Z,5.80
2023-01-29T14:06:45.609Z,5.90
2023-01-29T14:07:52.158Z,5.90
2023-01-29T14:08:54.484Z,5.90
2023-01-29T14:10:14.383Z,5.90
2023-01-29T14:11:16.408Z,5.90
2023-01-29T14:12:24.717Z,5.90
2023-01-29T14:13:28.075Z,5.90
2023-01-29T14:14:48.055Z,5.90
2023-01-29T14:15:58.634Z,5.90
2023-01-29T14:17:03.779Z,5.90
2023-01-29T14:18:08.545Z,5.90
2023-01-29T14:19:19.270Z,5.90
2023-01-29T14:20:32.314Z,5.90
2023-01-29T14:21:46.340Z,6.00
2023-01-29T14:23:00.892Z,5.90
2023-01-29T14:24:24.717Z,6.00
2023-01-29T14:25:35.566Z,6.00
2023-01-29T14:26:45.539Z,6.00
2023-01-29T14:27:48.814Z,6.00
2023-01-29T14:29:32.559Z,6.00
2023-01-29T14:30:39.645Z,6.00
2023-01-29T14:31:53.566Z,6.00
2023-01-29T14:32:56.067Z,6.00
2023-01-29T14:34:04.808Z,6.00
2023-01-29T14:35:28.325Z,6.00
2023-01-29T14:36:38.893Z,6.00
2023-01-29T14:37:41.741Z,6.00
2023-01-29T14:38:52.666Z,6.00
2023-01-29T14:40:18.008Z,6.00
2023-01-29T14:41:30.636Z,6.00
2023-01-29T14:42:58.037Z,6.00
2023-01-29T14:44:37.292Z,6.10
2023-01-29T14:45:41.920Z,6.10
2023-01-29T14:46:44.796Z,6.10
2023-01-29T14:47:55.670Z,6.10
2023-01-29T14:48:57.538Z,6.10
2023-01-29T14:50:22.931Z,6.10
2023-01-29T14:51:26.620Z,6.10
2023-01-29T14:52:40.261Z,6.10
2023-01-29T14:54:02.642Z,6.10
2023-01-29T14:55:25.441Z,6.10
2023-01-29T14:56:40.803Z,6.10
2023-01-29T14:57:43.228Z,6.10
2023-01-29T14:58:47.745Z,6.10
2023-01-29T15:00:05.632Z,6.10
2023-01-29T15:01:25.826Z,6.10
2023-01-29T15:02:37.426Z,6.10
2023-01-29T15:04:28.088Z,6.10
2023-01-29T15:05:35.929Z,6.10
2023-01-29T15:06:57.628Z,6.10
2023-01-29T15:08:16.946Z,6.00
2023-01-29T15:09:45.791Z,6.10
2023-01-29T15:11:14.341Z,6.00
2023-01-29T15:12:37.475Z,6.00
2023-01-29T15:13:57.823Z,6.00
2023-01-29T15:15:26.546Z,6.00
2023-01-29T15:16:47.891Z,6.00
2023-01-29T15:17:54.129Z,6.00
2023-01-29T15:19:06.196Z,6.00
2023-01-29T15:20:28.110Z,6.00
2023-01-29T15:21:30.062Z,6.00
2023-01-29T15:22:32.932Z,5.90